Time;durP1;ratioP1;P1;durP2;ratioP2;P2;SDS_P1;SDS_P2;PMS_P1;PMS_P2;Temp;Humidity;BMP_temperature;BMP_pressure;BME280_temperature;BME280_humidity;BME280_pressure;Samples;Min_cycle;Max_cycle;Signal;HPM_P1;HPM_P2
2022/06/03 00:00:05;;;;;;;7.25;3.83;;;12.40;99.90;;;;;;5042282;28;20037;-77
2022/06/03 00:02:57;;;;;;;6.22;3.38;;;12.30;99.90;;;;;;5046652;28;20037;-77
2022/06/03 00:06:01;;;;;;;5.55;3.80;;;12.30;99.90;;;;;;5044596;28;20041;-77
2022/06/03 00:09:01;;;;;;;3.28;2.80;;;12.20;99.90;;;;;;5048408;28;20406;-77
2022/06/03 00:12:00;;;;;;;6.30;3.30;;;12.20;99.90;;;;;;5032053;28;20041;-77
2022/06/03 00:14:45;;;;;;;4.53;3.30;;;12.20;99.90;;;;;;5054686;28;20037;-77
2022/06/03 00:17:22;;;;;;;;;;;12.20;99.90;;;;;;5050283;28;20048;-77
2022/06/03 00:20:00;;;;;;;6.97;3.80;;;12.10;99.90;;;;;;5048170;28;19917;-77
2022/06/03 00:22:32;;;;;;;4.80;3.50;;;12.00;99.90;;;;;;5049235;28;20041;-76
2022/06/03 00:25:06;;;;;;;4.57;3.40;;;12.00;99.90;;;;;;5048469;28;20127;-76
2022/06/03 00:27:56;;;;;;;5.47;3.50;;;11.90;99.90;;;;;;5048817;28;20052;-76
2022/06/03 00:30:41;;;;;;;6.65;3.90;;;11.90;99.90;;;;;;5045523;28;20045;-76
2022/06/03 00:33:19;;;;;;;4.93;4.13;;;11.90;99.90;;;;;;5042791;28;20190;-76
2022/06/03 00:35:53;;;;;;;5.68;3.80;;;11.80;99.90;;;;;;5045428;28;20137;-76
2022/06/03 00:38:28;;;;;;;4.60;3.60;;;11.60;99.90;;;;;;5050040;28;20049;-77
2022/06/03 00:41:05;;;;;;;5.38;3.40;;;11.70;99.90;;;;;;5050959;28;20116;-77
2022/06/03 00:43:42;;;;;;;7.05;3.42;;;11.60;99.90;;;;;;5053204;28;20067;-76
2022/06/03 00:46:21;;;;;;;3.95;3.10;;;11.60;99.90;;;;;;5035724;28;20102;-76
2022/06/03 00:49:20;;;;;;;4.70;3.20;;;11.60;99.90;;;;;;5053185;28;20120;-76
2022/06/03 00:52:08;;;;;;;5.47;3.67;;;11.60;99.90;;;;;;5051741;28;20040;-76
2022/06/03 00:54:48;;;;;;;4.97;3.40;;;11.60;99.90;;;;;;5023362;28;20045;-76
2022/06/03 00:57:26;;;;;;;5.93;3.70;;;11.50;99.90;;;;;;5053765;28;20047;-76
2022/06/03 01:00:06;;;;;;;6.38;3.75;;;11.40;99.90;;;;;;5049687;28;20115;-76
2022/06/03 01:02:57;;;;;;;4.20;3.20;;;11.40;99.90;;;;;;5048334;28;20033;-77
2022/06/03 01:05:52;;;;;;;3.65;3.10;;;11.40;99.90;;;;;;5047740;28;20032;-76
2022/06/03 01:08:49;;;;;;;3.83;2.95;;;11.40;99.90;;;;;;5048706;28;20053;-76
2022/06/03 01:11:24;;;;;;;5.05;3.30;;;11.30;99.90;;;;;;5018390;28;20063;-76
2022/06/03 01:14:24;;;;;;;4.25;3.50;;;11.30;99.90;;;;;;5032914;28;20040;-76
2022/06/03 01:17:01;;;;;;;4.68;3.95;;;11.20;99.90;;;;;;5014647;28;20052;-76
2022/06/03 01:19:41;;;;;;;4.97;3.80;;;11.30;99.90;;;;;;5051702;28;20040;-77
2022/06/03 01:22:33;;;;;;;6.45;4.03;;;11.30;99.90;;;;;;5052014;28;20037;-76
2022/06/03 01:25:10;;;;;;;4.57;3.60;;;11.30;99.90;;;;;;5016238;28;20419;-76
2022/06/03 01:27:50;;;;;;;4.50;3.95;;;11.30;99.90;;;;;;5053437;28;20041;-76
2022/06/03 01:30:40;;;;;;;7.15;4.10;;;11.20;99.90;;;;;;5043771;28;20120;-76
2022/06/03 01:33:50;;;;;;;5.65;3.80;;;11.20;99.90;;;;;;5042461;28;20041;-76
2022/06/03 01:36:41;;;;;;;5.63;4.25;;;11.20;99.90;;;;;;5052792;28;20048;-76
2022/06/03 01:39:15;;;;;;;7.13;4.47;;;11.20;99.90;;;;;;5049954;28;20128;-77
2022/06/03 01:42:12;;;;;;;4.90;3.72;;;11.20;99.90;;;;;;5050934;28;20036;-77
2022/06/03 01:44:56;;;;;;;6.65;3.90;;;11.20;99.90;;;;;;5055912;28;20487;-77
2022/06/03 01:47:24;;;;;;;10.13;4.50;;;11.10;99.90;;;;;;5050326;28;20052;-77
2022/06/03 01:50:10;;;;;;;5.28;4.10;;;11.10;99.90;;;;;;5051485;28;20228;-76
2022/06/03 01:53:09;;;;;;;6.32;4.22;;;11.10;99.90;;;;;;5050648;28;20128;-76
2022/06/03 01:55:47;;;;;;;4.68;3.63;;;11.10;99.90;;;;;;5050513;28;20053;-77
2022/06/03 01:58:27;;;;;;;6.15;3.28;;;11.00;99.90;;;;;;5050505;28;20044;-77
2022/06/03 02:01:06;;;;;;;5.07;3.58;;;11.00;99.90;;;;;;5044839;28;20044;-77
2022/06/03 02:03:47;;;;;;;4.80;3.90;;;10.90;99.90;;;;;;5049185;28;20033;-77
2022/06/03 02:06:43;;;;;;;6.57;4.35;;;10.90;99.90;;;;;;5063460;28;20096;-77
2022/06/03 02:09:33;;;;;;;5.47;4.43;;;10.80;99.90;;;;;;5044718;28;20037;-76
2022/06/03 02:12:10;;;;;;;7.45;3.35;;;10.70;99.90;;;;;;5043856;28;20040;-77
2022/06/03 02:15:23;;;;;;;5.38;3.47;;;10.70;99.90;;;;;;5048613;28;20111;-77
2022/06/03 02:17:51;;;;;;;6.43;3.83;;;10.70;99.90;;;;;;5047608;28;20495;-77
2022/06/03 02:20:45;;;;;;;6.05;3.97;;;10.70;99.90;;;;;;5046942;28;20565;-77
2022/06/03 02:23:29;;;;;;;7.28;4.13;;;10.70;99.90;;;;;;5046452;28;20036;-77
2022/06/03 02:26:06;;;;;;;;;;;10.80;99.90;;;;;;5050333;28;20049;-77
2022/06/03 02:30:24;;;;;;;7.50;4.28;;;10.80;99.90;;;;;;5050971;28;20370;-77
2022/06/03 02:31:43;;;;;;;6.43;4.43;;;10.80;99.90;;;;;;5050146;28;20045;-77
2022/06/03 02:34:36;;;;;;;5.30;4.15;;;10.80;99.90;;;;;;5050204;28;20406;-77
2022/06/03 02:37:23;;;;;;;6.35;5.00;;;10.80;99.90;;;;;;5050967;28;20037;-77
2022/06/03 02:40:23;;;;;;;8.23;4.95;;;10.70;99.90;;;;;;5050520;28;20069;-77
2022/06/03 02:43:17;;;;;;;5.03;4.13;;;10.70;99.90;;;;;;5043491;28;20398;-76
2022/06/03 02:46:06;;;;;;;7.72;4.97;;;10.60;99.90;;;;;;5049797;28;20065;-77
2022/06/03 02:48:44;;;;;;;6.35;4.40;;;10.60;99.90;;;;;;5049806;28;20052;-77
2022/06/03 02:51:26;;;;;;;6.65;4.40;;;10.50;99.90;;;;;;5046261;28;20454;-77
2022/06/03 02:54:18;;;;;;;5.85;4.38;;;10.50;99.90;;;;;;5048147;28;20380;-77
2022/06/03 02:56:57;;;;;;;5.82;4.47;;;10.40;99.90;;;;;;5050016;28;20051;-77
2022/06/03 02:59:35;;;;;;;7.68;4.72;;;10.40;99.90;;;;;;5049524;28;20194;-77
2022/06/03 03:02:30;;;;;;;6.00;4.10;;;10.40;99.90;;;;;;5050376;28;20491;-76
2022/06/03 03:05:29;;;;;;;5.20;3.58;;;10.40;99.90;;;;;;5037703;28;20040;-77
2022/06/03 03:08:30;;;;;;;6.85;4.70;;;10.30;99.90;;;;;;5043820;28;20044;-77
2022/06/03 03:11:17;;;;;;;5.95;4.20;;;10.30;99.90;;;;;;5044293;28;20044;-76
2022/06/03 03:14:19;;;;;;;8.10;4.97;;;10.20;99.90;;;;;;5048869;28;20049;-76
2022/06/03 03:17:15;;;;;;;4.93;4.15;;;10.20;99.90;;;;;;5050299;28;20045;-77
2022/06/03 03:20:19;;;;;;;7.97;4.28;;;10.20;99.90;;;;;;5049644;28;20037;-77
2022/06/03 03:22:45;;;;;;;5.32;4.65;;;10.10;99.90;;;;;;5038414;28;20052;-77
2022/06/03 03:25:48;;;;;;;5.78;4.93;;;10.00;99.90;;;;;;5065384;28;20578;-77
2022/06/03 03:28:55;;;;;;;5.15;4.65;;;10.00;99.90;;;;;;5043543;28;20163;-77
2022/06/03 03:31:33;;;;;;;5.32;4.82;;;10.10;99.90;;;;;;5043223;28;20056;-77
2022/06/03 03:34:20;;;;;;;7.30;4.90;;;10.10;99.90;;;;;;5045895;28;20047;-77
2022/06/03 03:37:11;;;;;;;7.18;4.63;;;10.10;99.90;;;;;;5044866;28;20037;-77
2022/06/03 03:40:13;;;;;;;5.97;4.50;;;10.20;99.90;;;;;;5044264;28;20045;-77
2022/06/03 03:43:21;;;;;;;6.82;4.60;;;10.10;99.90;;;;;;5045025;28;20045;-77
2022/06/03 03:46:08;;;;;;;7.40;5.30;;;10.20;99.90;;;;;;4990909;28;20068;-77
2022/06/03 03:48:52;;;;;;;7.70;6.22;;;10.30;99.90;;;;;;5042747;28;20052;-77
2022/06/03 03:51:57;;;;;;;9.80;6.22;;;10.40;99.90;;;;;;5043848;28;20045;-76
2022/06/03 03:54:53;;;;;;;6.95;5.45;;;10.40;99.90;;;;;;5043619;28;20029;-76
2022/06/03 03:57:59;;;;;;;7.97;5.88;;;10.50;99.90;;;;;;5043221;28;20056;-77
2022/06/03 04:00:36;;;;;;;9.30;6.43;;;10.60;99.90;;;;;;5044222;28;20064;-76
2022/06/03 04:03:29;;;;;;;9.63;6.63;;;10.70;99.90;;;;;;5043530;28;20054;-76
2022/06/03 04:06:32;;;;;;;9.20;6.57;;;10.80;99.90;;;;;;5026491;28;20487;-77
2022/06/03 04:09:15;;;;;;;8.43;6.22;;;10.80;99.90;;;;;;5042186;28;20483;-77
2022/06/03 04:12:05;;;;;;;12.48;7.03;;;10.90;99.90;;;;;;5046204;28;20037;-76
2022/06/03 04:14:48;;;;;;;9.40;6.63;;;10.90;99.90;;;;;;5042833;28;20171;-77
2022/06/03 04:17:53;;;;;;;8.85;6.57;;;11.00;99.90;;;;;;5042048;28;20052;-77
2022/06/03 04:20:44;;;;;;;11.02;6.18;;;11.10;99.90;;;;;;5043742;28;20033;-76
2022/06/03 04:23:47;;;;;;;8.45;6.32;;;11.10;99.90;;;;;;5044211;28;20045;-77
2022/06/03 04:26:30;;;;;;;10.73;6.30;;;11.10;99.90;;;;;;5043932;28;20124;-77
2022/06/03 04:29:35;;;;;;;9.70;6.45;;;11.10;99.90;;;;;;5029307;28;20062;-76
2022/06/03 04:32:03;;;;;;;8.18;6.32;;;11.20;99.90;;;;;;5043737;28;20071;-77
2022/06/03 04:34:41;;;;;;;9.15;6.60;;;11.20;99.90;;;;;;5045615;28;20530;-76
2022/06/03 04:37:09;;;;;;;12.23;6.28;;;11.20;99.90;;;;;;5043703;28;20055;-76
2022/06/03 04:39:50;;;;;;;9.15;6.38;;;11.20;99.90;;;;;;5026338;28;20033;-76
2022/06/03 04:42:49;;;;;;;9.48;6.50;;;11.10;99.90;;;;;;5059838;28;20090;-76
2022/06/03 04:45:57;;;;;;;8.75;5.75;;;11.10;99.90;;;;;;5042672;28;20333;-76
2022/06/03 04:48:55;;;;;;;8.43;5.95;;;11.20;99.90;;;;;;5043983;28;20402;-76
2022/06/03 04:51:58;;;;;;;10.23;5.85;;;11.30;99.90;;;;;;5041797;28;20055;-76
2022/06/03 04:55:03;;;;;;;8.90;5.63;;;11.40;99.90;;;;;;5043533;28;20106;-76
2022/06/03 04:57:57;;;;;;;8.48;5.20;;;11.50;99.90;;;;;;5059580;28;20120;-76
2022/06/03 05:00:40;;;;;;;6.65;5.32;;;11.70;99.90;;;;;;5040919;28;20041;-77
2022/06/03 05:03:18;;;;;;;11.77;5.43;;;11.70;99.90;;;;;;5042234;28;20065;-76
2022/06/03 05:05:43;;;;;;;10.73;5.70;;;11.80;99.90;;;;;;5045729;28;20102;-75
2022/06/03 05:08:33;;;;;;;9.23;4.93;;;11.90;99.90;;;;;;5043506;28;20041;-76
2022/06/03 05:11:23;;;;;;;10.13;5.75;;;12.00;99.90;;;;;;5044601;28;20033;-75
2022/06/03 05:14:31;;;;;;;7.38;4.95;;;12.20;99.90;;;;;;5043001;28;20041;-75
2022/06/03 05:17:34;;;;;;;7.85;5.15;;;12.20;99.90;;;;;;5043252;28;20049;-76
2022/06/03 05:20:03;;;;;;;7.25;4.97;;;12.30;99.90;;;;;;5039763;28;20037;-76
2022/06/03 05:22:38;;;;;;;8.45;5.00;;;12.30;99.90;;;;;;5044825;28;20045;-75
2022/06/03 05:25:18;;;;;;;7.85;4.93;;;12.40;99.90;;;;;;5060510;28;20037;-75
2022/06/03 05:28:06;;;;;;;10.65;6.10;;;12.50;99.90;;;;;;5046269;28;20048;-76
2022/06/03 05:31:10;;;;;;;9.60;5.32;;;12.50;99.90;;;;;;5047617;28;20041;-75
2022/06/03 05:34:24;;;;;;;8.43;5.20;;;12.60;99.90;;;;;;5048950;28;20529;-75
2022/06/03 05:36:58;;;;;;;6.93;4.35;;;12.80;99.90;;;;;;5020010;28;20103;-76
2022/06/03 05:39:50;;;;;;;9.27;4.68;;;12.80;99.90;;;;;;5047089;28;20043;-75
2022/06/03 05:42:29;;;;;;;9.38;4.82;;;12.90;99.90;;;;;;5046077;28;20048;-76
2022/06/03 05:45:16;;;;;;;9.55;4.70;;;13.00;99.90;;;;;;5046455;28;20056;-75
2022/06/03 05:47:53;;;;;;;5.38;4.28;;;13.10;99.90;;;;;;5046747;28;20107;-75
2022/06/03 05:50:37;;;;;;;9.23;4.22;;;13.20;99.90;;;;;;5062210;28;20041;-75
2022/06/03 05:53:25;;;;;;;7.55;4.25;;;13.40;99.90;;;;;;5029375;28;20115;-76
2022/06/03 05:56:06;;;;;;;8.18;4.10;;;13.40;99.90;;;;;;5046920;28;20059;-75
2022/06/03 05:58:31;;;;;;;6.78;3.92;;;13.50;99.90;;;;;;5046663;28;20048;-75
2022/06/03 06:01:19;;;;;;;6.72;4.00;;;13.60;99.90;;;;;;5046771;28;20414;-76
2022/06/03 06:04:17;;;;;;;6.47;3.97;;;13.70;99.90;;;;;;5044226;28;20082;-75
2022/06/03 06:06:58;;;;;;;5.47;3.63;;;13.80;99.90;;;;;;5026177;28;20040;-76
2022/06/03 06:09:31;;;;;;;5.60;3.55;;;13.90;99.90;;;;;;5044056;28;20041;-74
2022/06/03 06:12:15;;;;;;;7.57;3.55;;;14.00;99.90;;;;;;5044735;28;20071;-75
2022/06/03 06:14:53;;;;;;;;;;;14.20;99.90;;;;;;5046125;28;20041;-74
2022/06/03 06:17:33;;;;;;;7.18;3.17;;;14.30;99.90;;;;;;5029910;28;20008;-76
2022/06/03 06:20:18;;;;;;;4.20;3.13;;;14.40;99.90;;;;;;5044647;28;20510;-75
2022/06/03 06:22:49;;;;;;;5.25;3.28;;;14.50;99.90;;;;;;5046720;28;20033;-75
2022/06/03 06:25:38;;;;;;;5.13;3.08;;;14.60;99.90;;;;;;5048660;28;20094;-76
2022/06/03 06:28:05;;;;;;;5.57;3.20;;;14.60;99.90;;;;;;5051994;28;20172;-75
2022/06/03 06:30:54;;;;;;;6.05;3.42;;;14.70;99.90;;;;;;5051831;28;20041;-75
2022/06/03 06:34:07;;;;;;;4.93;2.78;;;14.90;99.90;;;;;;5038550;28;20045;-76
2022/06/03 06:37:00;;;;;;;5.60;2.70;;;15.00;99.90;;;;;;5041161;28;20419;-75
2022/06/03 06:40:06;;;;;;;6.25;2.75;;;15.20;99.90;;;;;;5052032;28;20044;-75
2022/06/03 06:42:42;;;;;;;4.03;2.40;;;15.30;99.90;;;;;;5040616;28;20036;-76
2022/06/03 06:45:29;;;;;;;3.85;2.30;;;15.40;99.90;;;;;;5086793;28;20047;-76
2022/06/03 06:48:33;;;;;;;3.83;2.25;;;15.40;99.90;;;;;;5031781;28;20051;-75
2022/06/03 06:51:04;;;;;;;4.43;1.98;;;15.50;99.90;;;;;;5045315;28;20068;-74
2022/06/03 06:53:43;;;;;;;5.88;2.38;;;15.50;99.90;;;;;;5051426;28;20131;-75
2022/06/03 06:56:20;;;;;;;2.97;1.85;;;15.50;99.90;;;;;;5040793;28;20045;-75
2022/06/03 06:58:51;;;;;;;3.47;1.70;;;15.60;99.90;;;;;;5044158;28;20123;-76
2022/06/03 07:01:26;;;;;;;3.95;1.90;;;15.70;99.90;;;;;;5046263;28;20037;-76
2022/06/03 07:04:05;;;;;;;4.35;1.70;;;15.90;99.90;;;;;;5062623;28;20533;-75
2022/06/03 07:06:48;;;;;;;4.22;1.85;;;15.90;99.90;;;;;;5051269;28;20120;-75
2022/06/03 07:09:32;;;;;;;5.15;1.98;;;15.90;99.90;;;;;;5048738;28;20040;-76
2022/06/03 07:12:09;;;;;;;4.63;2.20;;;16.20;99.90;;;;;;5062411;28;20040;-76
2022/06/03 07:15:00;;;;;;;3.13;1.80;;;16.30;99.90;;;;;;5029117;28;20090;-80
2022/06/03 07:20:40;;;;;;;2.92;1.73;;;16.50;99.90;;;;;;5045040;28;20033;-77
2022/06/03 07:23:13;;;;;;;3.00;1.70;;;16.60;99.90;;;;;;5045667;28;20482;-78
2022/06/03 07:25:48;;;;;;;2.63;1.75;;;16.70;99.90;;;;;;5026226;28;20037;-76
2022/06/03 07:28:45;;;;;;;4.00;1.80;;;16.80;99.90;;;;;;5045455;28;20041;-76
2022/06/03 07:31:22;;;;;;;3.40;1.52;;;16.90;99.90;;;;;;5043972;28;20045;-77
2022/06/03 07:34:12;;;;;;;6.50;1.58;;;17.00;99.90;;;;;;5043779;28;20059;-77
2022/06/03 07:36:54;;;;;;;5.10;1.50;;;17.10;99.90;;;;;;5045938;28;20072;-77
2022/06/03 07:39:32;;;;;;;2.67;1.30;;;17.20;99.90;;;;;;5047684;28;20499;-76
2022/06/03 07:42:17;;;;;;;2.90;1.83;;;17.30;99.90;;;;;;5045694;28;20056;-77
2022/06/03 07:45:00;;;;;;;3.90;1.40;;;17.40;99.90;;;;;;5049430;28;20132;-80
2022/06/03 07:47:28;;;;;;;2.17;1.20;;;17.60;99.90;;;;;;5031007;28;20183;-77
2022/06/03 07:50:04;;;;;;;2.35;1.25;;;17.60;99.90;;;;;;5037645;28;20110;-77
2022/06/03 07:52:48;;;;;;;2.85;1.38;;;17.70;99.90;;;;;;5050066;28;20040;-77
2022/06/03 07:55:24;;;;;;;3.15;1.35;;;17.80;99.90;;;;;;5049199;28;20049;-78
2022/06/03 07:57:52;;;;;;;2.88;1.20;;;17.80;99.90;;;;;;5050567;28;20523;-77
2022/06/03 08:00:20;;;;;;;2.10;1.30;;;18.00;99.90;;;;;;5044404;28;20094;-76
2022/06/03 08:02:45;;;;;;;5.20;1.85;;;18.10;99.90;;;;;;5042003;28;20112;-79
2022/06/03 08:05:19;;;;;;;3.00;1.42;;;18.20;99.90;;;;;;5048999;28;20188;-78
2022/06/03 08:10:57;;;;;;;4.80;1.60;;;18.30;99.90;;;;;;5049883;28;20055;-78
2022/06/03 08:13:39;;;;;;;5.28;1.60;;;18.40;99.90;;;;;;5050116;28;20045;-78
2022/06/03 08:16:11;;;;;;;2.63;1.30;;;18.50;99.90;;;;;;5049706;28;20056;-77
2022/06/03 08:18:40;;;;;;;2.20;1.30;;;18.60;99.90;;;;;;5045087;28;20038;-78
2022/06/03 08:21:27;;;;;;;2.08;1.50;;;18.70;99.90;;;;;;5048728;28;20033;-77
2022/06/03 08:23:54;;;;;;;4.45;1.90;;;18.80;99.90;;;;;;5044232;28;20033;-80
2022/06/03 08:26:23;;;;;;;4.90;1.52;;;18.80;99.90;;;;;;5045740;28;20499;-78
2022/06/03 08:28:54;;;;;;;4.40;2.00;;;18.90;99.90;;;;;;5038390;28;20064;-77
2022/06/03 08:31:23;;;;;;;2.90;1.50;;;19.00;99.90;;;;;;5032079;28;20073;-76
2022/06/03 08:33:53;;;;;;;3.20;1.40;;;19.00;99.90;;;;;;5049074;28;20503;-78
2022/06/03 08:36:27;;;;;;;2.65;1.73;;;19.00;99.90;;;;;;5046540;28;20045;-77
2022/06/03 08:39:08;;;;;;;3.00;1.70;;;19.10;99.90;;;;;;5049935;28;20045;-77
2022/06/03 08:41:59;;;;;;;3.08;1.55;;;19.10;99.90;;;;;;5048511;28;20129;-78
2022/06/03 08:44:41;;;;;;;2.67;1.30;;;19.20;99.90;;;;;;5043777;28;20072;-77
2022/06/03 08:47:12;;;;;;;3.63;1.80;;;19.20;99.90;;;;;;5047411;28;20128;-78
2022/06/03 08:50:01;;;;;;;3.63;1.67;;;19.30;99.90;;;;;;5047010;28;20045;-79
2022/06/03 08:53:00;;;;;;;3.08;1.48;;;19.30;99.90;;;;;;5047543;28;21662;-79
2022/06/03 08:55:44;;;;;;;3.55;1.40;;;19.30;99.90;;;;;;5062547;28;20131;-78
2022/06/03 08:58:30;;;;;;;5.18;1.60;;;19.40;99.90;;;;;;5035464;28;20040;-78
2022/06/03 09:01:08;;;;;;;4.28;1.60;;;19.40;99.90;;;;;;5035386;28;20183;-79
2022/06/03 09:04:10;;;;;;;3.15;1.80;;;19.40;99.90;;;;;;5033474;28;20047;-79
2022/06/03 09:06:44;;;;;;;2.90;1.90;;;19.40;99.90;;;;;;5052032;28;20067;-79
2022/06/03 09:09:44;;;;;;;4.40;1.90;;;19.40;99.90;;;;;;5053129;28;20619;-78
2022/06/03 09:12:37;;;;;;;4.88;1.70;;;19.40;99.90;;;;;;5047477;28;20044;-78
2022/06/03 09:15:08;;;;;;;4.37;1.77;;;19.50;99.90;;;;;;5030752;28;20112;-78
2022/06/03 09:17:42;;;;;;;3.25;1.60;;;19.50;99.90;;;;;;5053019;28;20107;-77
2022/06/03 09:20:17;;;;;;;4.47;1.98;;;19.60;99.90;;;;;;5053627;28;20041;-80
2022/06/03 09:22:45;;;;;;;3.00;1.70;;;19.60;99.90;;;;;;5053844;28;20037;-79
2022/06/03 09:25:13;;;;;;;4.07;1.90;;;19.60;99.90;;;;;;5053221;28;20120;-79
2022/06/03 09:27:41;;;;;;;3.17;2.00;;;19.70;99.90;;;;;;5053502;28;20049;-77
2022/06/03 09:30:09;;;;;;;3.25;1.70;;;19.70;99.90;;;;;;5037238;28;20041;-79
2022/06/03 09:32:39;;;;;;;5.47;2.05;;;19.80;99.90;;;;;;5036803;28;20072;-79
2022/06/03 09:35:13;;;;;;;5.22;2.00;;;19.80;99.90;;;;;;5052790;28;20055;-78
2022/06/03 09:37:43;;;;;;;2.50;1.88;;;19.90;99.90;;;;;;5053568;28;20048;-79
2022/06/03 09:40:14;;;;;;;5.35;1.90;;;20.00;99.90;;;;;;5053180;28;20037;-78
2022/06/03 09:42:50;;;;;;;3.38;2.10;;;20.00;99.90;;;;;;5053836;28;20033;-79
2022/06/03 09:45:20;;;;;;;5.63;2.13;;;20.20;99.90;;;;;;5053796;28;20138;-79
2022/06/03 09:47:47;;;;;;;3.20;2.17;;;20.20;99.90;;;;;;5037403;28;20044;-80
2022/06/03 09:50:18;;;;;;;4.30;1.90;;;20.20;99.90;;;;;;5053559;28;20087;-80
2022/06/03 09:52:44;;;;;;;4.28;2.17;;;20.40;99.90;;;;;;5038206;28;20056;-81
2022/06/03 09:55:33;;;;;;;5.45;2.20;;;20.40;99.90;;;;;;5051365;28;20076;-81
2022/06/03 09:58:01;;;;;;;4.32;2.17;;;20.50;99.90;;;;;;5051302;28;20037;-80
2022/06/03 10:00:41;;;;;;;3.33;2.00;;;20.40;99.90;;;;;;5052871;28;20037;-80
2022/06/03 10:03:07;;;;;;;2.72;1.80;;;20.50;99.90;;;;;;5052731;28;20037;-81
2022/06/03 10:05:34;;;;;;;3.78;2.13;;;20.60;99.90;;;;;;5052629;28;20049;-79
2022/06/03 10:08:05;;;;;;;3.75;1.95;;;20.70;99.90;;;;;;5036563;28;20566;-78
2022/06/03 10:13:16;;;;;;;3.08;2.25;;;20.80;99.90;;;;;;5052485;28;20124;-80
2022/06/03 10:15:56;;;;;;;3.42;1.95;;;20.80;99.90;;;;;;5052649;28;20121;-77
2022/06/03 10:18:39;;;;;;;4.15;2.20;;;20.90;99.90;;;;;;5052642;28;20052;-81
2022/06/03 10:21:05;;;;;;;4.25;2.25;;;20.90;99.90;;;;;;5054724;28;20037;-79
2022/06/03 10:23:36;;;;;;;3.95;2.15;;;21.00;99.90;;;;;;5052990;28;20120;-77
2022/06/03 10:26:04;;;;;;;5.45;1.80;;;21.10;99.90;;;;;;5054025;28;20033;-81
2022/06/03 10:28:39;;;;;;;4.10;2.20;;;21.20;99.90;;;;;;5053829;28;20398;-80
2022/06/03 10:31:07;;;;;;;2.97;2.03;;;21.10;99.90;;;;;;5053207;28;20040;-79
2022/06/03 10:33:34;;;;;;;4.97;2.17;;;20.80;99.90;;;;;;5053972;28;20068;-80
2022/06/03 10:36:01;;;;;;;3.97;2.00;;;20.90;99.90;;;;;;5051738;28;20120;-80
2022/06/03 10:38:31;;;;;;;5.22;2.03;;;21.10;99.90;;;;;;5052722;28;20072;-77
2022/06/03 10:41:02;;;;;;;4.93;1.98;;;21.20;99.90;;;;;;5052100;28;20588;-79
2022/06/03 10:43:31;;;;;;;3.03;2.00;;;21.20;99.90;;;;;;5035450;28;20090;-80
2022/06/03 10:46:13;;;;;;;2.90;2.10;;;21.20;99.90;;;;;;5051628;28;20479;-80
2022/06/03 10:48:40;;;;;;;4.35;2.28;;;21.30;99.90;;;;;;5053164;28;20099;-79
2022/06/03 11:02:37;;;;;;;3.35;2.10;;;21.70;99.90;;;;;;5051619;28;20131;-79
2022/06/03 11:05:14;;;;;;;2.80;1.80;;;21.80;99.90;;;;;;5051450;28;20380;-80
2022/06/03 11:07:40;;;;;;;3.22;2.10;;;21.90;99.80;;;;;;5052058;28;20503;-78
2022/06/03 11:10:13;;;;;;;3.38;1.83;;;22.00;99.70;;;;;;5035022;28;20040;-82
2022/06/03 11:12:40;;;;;;;5.43;2.27;;;21.60;99.20;;;;;;5048404;28;20037;-78
2022/06/03 11:15:36;;;;;;;2.88;1.80;;;21.70;99.30;;;;;;5050302;28;20048;-79
2022/06/03 11:18:16;;;;;;;3.83;1.73;;;21.70;99.30;;;;;;5023685;28;20114;-77
2022/06/03 11:20:42;;;;;;;5.80;1.80;;;22.00;99.40;;;;;;5051064;28;20438;-79
2022/06/03 11:23:10;;;;;;;4.95;1.95;;;22.20;99.20;;;;;;5044988;28;20098;-81
2022/06/03 11:25:42;;;;;;;4.65;1.85;;;22.30;98.90;;;;;;5051137;28;20033;-78
2022/06/03 11:28:16;;;;;;;4.32;1.98;;;22.50;98.60;;;;;;5051875;28;20126;-77
2022/06/03 11:30:56;;;;;;;2.90;1.70;;;22.60;98.30;;;;;;5038084;28;20090;-76
2022/06/03 11:33:37;;;;;;;3.20;1.60;;;22.90;98.30;;;;;;5052354;28;20056;-80
2022/06/03 11:36:08;;;;;;;2.83;1.50;;;23.10;98.20;;;;;;5051307;28;20627;-79
2022/06/03 11:38:46;;;;;;;2.58;1.67;;;23.30;97.60;;;;;;5050789;28;20041;-78
2022/06/03 11:41:21;;;;;;;2.45;1.55;;;23.40;97.20;;;;;;5053017;28;20048;-78
2022/06/03 11:44:11;;;;;;;3.65;1.70;;;23.60;97.30;;;;;;5050505;28;20060;-80
2022/06/03 11:46:51;;;;;;;2.60;1.73;;;23.70;96.60;;;;;;5051508;28;20037;-79
2022/06/03 11:49:20;;;;;;;3.38;1.80;;;23.90;96.70;;;;;;5034508;28;20041;-78
2022/06/03 11:51:46;;;;;;;3.10;1.67;;;24.00;96.30;;;;;;5051210;28;20124;-80
2022/06/03 11:54:15;;;;;;;2.60;1.70;;;24.20;96.30;;;;;;5051000;28;20392;-79
2022/06/03 11:56:43;;;;;;;3.17;1.67;;;24.30;95.60;;;;;;5052152;28;20037;-80
2022/06/03 11:59:45;;;;;;;4.63;1.75;;;24.30;95.40;;;;;;5052808;28;20140;-79
2022/06/03 12:02:32;;;;;;;4.30;1.50;;;24.50;94.00;;;;;;5007826;28;20510;-79
2022/06/03 12:05:07;;;;;;;2.85;1.50;;;24.70;94.50;;;;;;5035475;28;20044;-79
2022/06/03 12:07:53;;;;;;;4.25;1.58;;;24.40;94.30;;;;;;5035309;28;20036;-79
2022/06/03 12:10:40;;;;;;;2.25;1.40;;;24.50;94.40;;;;;;5034633;28;20056;-79
2022/06/03 12:13:27;;;;;;;3.22;1.30;;;24.60;94.20;;;;;;5052886;28;20074;-78
2022/06/03 12:15:58;;;;;;;3.97;1.35;;;24.70;93.70;;;;;;5050680;28;20422;-78
2022/06/03 12:18:34;;;;;;;3.53;1.30;;;24.90;93.20;;;;;;5051547;28;20041;-78
2022/06/03 12:21:03;;;;;;;4.22;1.60;;;25.10;93.10;;;;;;5051599;28;20037;-78
2022/06/03 12:23:29;;;;;;;3.10;1.50;;;25.00;92.60;;;;;;5049361;28;20521;-77
2022/06/03 12:25:57;;;;;;;2.55;1.20;;;25.10;92.50;;;;;;5049196;28;20037;-79
2022/06/03 12:28:45;;;;;;;2.88;1.48;;;25.10;91.90;;;;;;5050457;28;20124;-79
2022/06/03 12:31:42;;;;;;;2.42;1.50;;;25.20;91.60;;;;;;5049681;28;20036;-79
2022/06/03 12:34:27;;;;;;;3.10;1.63;;;25.30;91.70;;;;;;5050137;28;20045;-78
2022/06/03 12:37:25;;;;;;;2.28;1.50;;;25.40;91.50;;;;;;5037777;28;20037;-80
2022/06/03 12:40:19;;;;;;;4.60;1.30;;;25.50;91.80;;;;;;5053039;28;20068;-78
2022/06/03 12:42:45;;;;;;;2.22;1.30;;;25.60;91.00;;;;;;5052556;28;20041;-78
2022/06/03 12:45:13;;;;;;;2.63;1.40;;;25.70;91.30;;;;;;5053411;28;20037;-78
2022/06/03 12:47:45;;;;;;;2.47;1.30;;;25.90;91.30;;;;;;5051483;28;20080;-77
2022/06/03 12:50:36;;;;;;;3.63;1.75;;;25.90;90.50;;;;;;5033898;28;20496;-77
2022/06/03 12:53:27;;;;;;;3.03;1.60;;;25.80;88.50;;;;;;5052220;28;20049;-79
2022/06/03 12:55:57;;;;;;;2.45;1.33;;;25.90;89.90;;;;;;5038617;28;20136;-76
2022/06/03 12:58:46;;;;;;;3.78;1.40;;;26.10;90.00;;;;;;5033746;28;20045;-79
2022/06/03 13:01:12;;;;;;;4.50;1.55;;;26.20;90.30;;;;;;5052468;28;20129;-77
2022/06/03 13:03:41;;;;;;;2.45;1.48;;;26.20;90.00;;;;;;5052852;28;20033;-79
2022/06/03 13:06:08;;;;;;;2.55;1.50;;;26.40;90.30;;;;;;5035879;28;20494;-79
2022/06/03 13:08:34;;;;;;;2.28;1.30;;;26.50;90.00;;;;;;5052342;28;20056;-80
2022/06/03 13:11:30;;;;;;;3.92;1.60;;;26.60;90.10;;;;;;5053302;28;20041;-78
2022/06/03 13:13:56;;;;;;;2.70;1.30;;;26.50;88.70;;;;;;5038850;28;20045;-79
2022/06/03 13:16:31;;;;;;;4.07;1.42;;;26.50;88.10;;;;;;5031450;28;20537;-79
2022/06/03 13:19:21;;;;;;;6.68;1.35;;;26.50;87.20;;;;;;5041238;28;20048;-80
2022/06/03 13:22:00;;;;;;;2.92;1.38;;;26.40;86.10;;;;;;5039273;28;20048;-79
2022/06/03 13:24:29;;;;;;;5.25;1.73;;;26.40;87.60;;;;;;5048438;28;20041;-80
2022/06/03 13:26:58;;;;;;;1.58;1.10;;;26.50;89.20;;;;;;5034556;28;20120;-80
2022/06/03 13:29:48;;;;;;;3.92;1.30;;;26.30;88.10;;;;;;5050456;28;20052;-79
2022/06/03 13:32:18;;;;;;;2.70;1.35;;;26.40;87.50;;;;;;5049118;28;20041;-78
2022/06/03 13:34:45;;;;;;;4.50;1.33;;;26.50;89.20;;;;;;5054942;28;20116;-79
2022/06/03 13:37:31;;;;;;;3.10;1.30;;;26.30;88.90;;;;;;5051533;28;20384;-79
2022/06/03 13:39:57;;;;;;;5.90;1.50;;;26.40;89.40;;;;;;5030548;28;20041;-79
2022/06/03 13:42:57;;;;;;;2.83;1.15;;;26.20;89.20;;;;;;5051419;28;20044;-79
2022/06/03 13:45:44;;;;;;;7.18;1.30;;;26.10;89.10;;;;;;5051588;28;20060;-79
2022/06/03 13:48:44;;;;;;;3.47;1.10;;;26.20;89.20;;;;;;5032575;28;20419;-79
2022/06/03 13:51:36;;;;;;;2.63;1.25;;;25.90;89.00;;;;;;5046439;28;20116;-78
2022/06/03 13:54:21;;;;;;;1.88;1.10;;;25.90;88.80;;;;;;5069694;28;20037;-79
2022/06/03 13:56:59;;;;;;;2.03;0.90;;;25.90;87.60;;;;;;5054446;28;20106;-80
2022/06/03 13:59:30;;;;;;;2.75;1.10;;;26.00;88.40;;;;;;5058413;28;20067;-79
2022/06/03 14:01:56;;;;;;;3.75;1.00;;;26.10;87.90;;;;;;5056601;28;20084;-79
2022/06/03 14:04:29;;;;;;;2.53;0.95;;;25.90;87.70;;;;;;5046405;28;20029;-78
2022/06/03 14:07:04;;;;;;;3.75;1.20;;;26.00;86.20;;;;;;5051679;28;20040;-80
2022/06/03 14:09:49;;;;;;;4.45;1.15;;;26.20;86.80;;;;;;5055511;28;20398;-81
2022/06/03 14:12:29;;;;;;;3.97;1.05;;;26.30;86.10;;;;;;5033123;28;21534;-80
2022/06/03 14:15:06;;;;;;;3.45;1.08;;;26.50;86.30;;;;;;5055717;28;20060;-79
2022/06/03 14:17:41;;;;;;;2.85;1.00;;;26.50;85.80;;;;;;5054463;28;20415;-79
2022/06/03 14:20:13;;;;;;;3.72;0.90;;;26.70;86.30;;;;;;5056934;28;20033;-80
2022/06/03 14:22:58;;;;;;;6.40;1.00;;;26.80;85.60;;;;;;5049708;28;20406;-79